Marchen Maersk — OUIY2 — position and weather

sailwx.info

Track history (hours):
 
Tides and Currents Weather Stations Pressure Air Temp Water Temp Dewpoint Dewpoint Depression Visibility Wind Speed Wind Dir Waves Ship Positions

Marchen Maersk

Last reported at 2017-Mar-23 08:05 UTC. Time now 2017-Mar-29 22:59 UTC.
Position N 38°11' W 124°12'.

Length 367 m; draft 13.5 m.

Type: Ship (hazmat cat A). MMSI: 220594000.

Date/timePositionNaut miles runAvg speedWind from/ knotsBaromVisibWave heightAir tempDewpointWater temp
2017-Mar-23 08:05N 38°11' W 124°12'917.1
2017-Mar-23 07:34N 38°11' W 124°00'1717.0
2017-Mar-23 06:34N 38°11' W 123°39'1615.8
2017-Mar-23 05:34N 38°08' W 123°19'1616.1
2017-Mar-23 04:34N 37°57' W 123°04'1616.4
2017-Mar-23 03:34N 37°48' W 122°47'10 9.9
2017-Mar-23 02:34N 37°47' W 122°34'1110.7
2017-Mar-23 01:34N 37°48' W 122°21'2 1.8
2017-Mar-23 00:31N 37°48' W 122°18'0 0.0
2017-Mar-22 23:33N 37°48' W 122°18'0 0.0
2017-Mar-22 22:31N 37°48' W 122°18'0 0.0
2017-Mar-22 21:31N 37°48' W 122°18'0 0.0
2017-Mar-22 20:31N 37°48' W 122°18'0 0.0
2017-Mar-22 19:31N 37°48' W 122°18'0 0.0
2017-Mar-22 18:31N 37°48' W 122°18'0 0.0
2017-Mar-22 17:32N 37°48' W 122°18'0 0.0
2017-Mar-22 16:31N 37°48' W 122°18'0 0.0
2017-Mar-22 15:31N 37°48' W 122°18'0 0.0
2017-Mar-22 14:31N 37°48' W 122°18'0 0.0
2017-Mar-22 13:31N 37°48' W 122°18'0 0.0
2017-Mar-22 12:31N 37°48' W 122°18'0 0.0
2017-Mar-22 11:31N 37°48' W 122°18'0 0.0
2017-Mar-22 10:31N 37°48' W 122°18'0 0.0
2017-Mar-22 09:31N 37°48' W 122°18'0 0.0
2017-Mar-22 08:31N 37°48' W 122°18'0 0.0
2017-Mar-22 07:31N 37°48' W 122°18'0 0.0
2017-Mar-22 06:31N 37°48' W 122°18'0 0.0
2017-Mar-22 05:31N 37°48' W 122°18'0 0.0
2017-Mar-22 04:31N 37°48' W 122°18'0 0.0
2017-Mar-22 03:32N 37°48' W 122°18'0 0.0
2017-Mar-22 02:31N 37°48' W 122°18'0 0.0
2017-Mar-22 01:31N 37°48' W 122°18'0 0.0
2017-Mar-22 00:31N 37°48' W 122°18'0 0.0
2017-Mar-21 23:31N 37°48' W 122°18'0 0.0
2017-Mar-21 22:31N 37°48' W 122°18'0 0.0
2017-Mar-21 21:31N 37°48' W 122°18'0 0.0
2017-Mar-21 20:31N 37°48' W 122°18'0 0.0
2017-Mar-21 19:31N 37°48' W 122°18'0 0.0
2017-Mar-21 18:31N 37°48' W 122°18'0 0.0
2017-Mar-21 17:31N 37°48' W 122°18'0 0.0
2017-Mar-21 16:31N 37°48' W 122°18'0 0.4
2017-Mar-21 15:33N 37°48' W 122°18'2 1.6
2017-Mar-21 14:33N 37°48' W 122°20'9 8.5
2017-Mar-21 13:33N 37°48' W 122°31'9 9.2
2017-Mar-21 12:33N 37°43' W 122°40'7 7.4
2017-Mar-21 11:33N 37°35' W 122°40'7 7.3
2017-Mar-21 10:33N 37°28' W 122°40'8 7.7
2017-Mar-21 09:34N 37°20' W 122°40'8 7.6
2017-Mar-21 08:33N 37°13' W 122°40'8 7.8
2017-Mar-21 07:33N 37°05' W 122°37'1110.9
2017-Mar-21 06:33N 36°55' W 122°33'1110.9
2017-Mar-21 05:34N 36°45' W 122°28'1110.9
2017-Mar-21 04:34N 36°35' W 122°23'1111.0
2017-Mar-21 03:33N 36°24' W 122°18'1110.9
2017-Mar-21 02:34N 36°15' W 122°12'1111.1
2017-Mar-21 01:34N 36°05' W 122°05'1111.1
2017-Mar-21 00:34N 35°55' W 121°58'1010.5
2017-Mar-20 23:34N 35°46' W 121°52'1110.5
2017-Mar-20 22:33N 35°37' W 121°45'1010.2
2017-Mar-20 21:33N 35°28' W 121°39'1010.4
2017-Mar-20 20:33N 35°20' W 121°32'1010.2
2017-Mar-20 19:34N 35°11' W 121°25'1010.4
2017-Mar-20 18:33N 35°02' W 121°19'1010.3
2017-Mar-20 17:34N 34°53' W 121°12'1010.3
2017-Mar-20 16:34N 34°44' W 121°06'1010.3
2017-Mar-20 15:33N 34°36' W 120°59'1211.7
2017-Mar-20 14:34N 34°26' W 120°51'1412.9
2017-Mar-20 13:30N 34°23' W 120°35'1313.3
2017-Mar-20 12:33N 34°19' W 120°20'1313.1
2017-Mar-20 11:33N 34°16' W 120°05'1313.2
2017-Mar-20 10:33N 34°12' W 119°49'1313.0
2017-Mar-20 09:33N 34°09' W 119°34'1312.9
2017-Mar-20 08:34N 34°05' W 119°19'1313.0
2017-Mar-20 07:33N 33°60' W 119°05'1312.6
2017-Mar-20 06:33N 33°53' W 118°52'1313.1
2017-Mar-20 05:34N 33°47' W 118°38'1313.0
2017-Mar-20 04:33N 33°41' W 118°25'9 9.1
2017-Mar-20 03:33N 33°40' W 118°14'4 3.8
2017-Mar-20 02:32N 33°44' W 118°15'0 0.0
2017-Mar-20 01:32N 33°44' W 118°15'0 0.0
2017-Mar-20 00:32N 33°44' W 118°15'0 0.0
2017-Mar-19 23:32N 33°44' W 118°15'0 0.0
2017-Mar-19 22:32N 33°44' W 118°15'0 0.0
2017-Mar-19 21:32N 33°44' W 118°15'0 0.0
2017-Mar-19 20:32N 33°44' W 118°15'0 0.0
2017-Mar-19 18:32N 33°44' W 118°15'0 0.0
2017-Mar-19 17:23N 33°44' W 118°15'0 0.0
2017-Mar-19 16:32N 33°44' W 118°15'0 0.0
2017-Mar-19 15:17N 33°44' W 118°15'0 0.0
2017-Mar-19 14:32N 33°44' W 118°15'0 0.0
2017-Mar-19 13:32N 33°44' W 118°15'0 0.0
2017-Mar-19 12:32N 33°44' W 118°15'0 0.0
2017-Mar-19 11:32N 33°44' W 118°15'0 0.0
2017-Mar-19 10:32N 33°44' W 118°15'0 0.0
2017-Mar-19 09:32N 33°44' W 118°15'0 0.0
2017-Mar-19 08:32N 33°44' W 118°15'0 0.0
2017-Mar-19 07:20N 33°44' W 118°15'0 0.0
2017-Mar-19 06:32N 33°44' W 118°15'0 0.0
2017-Mar-19 05:32N 33°44' W 118°15'0 0.0
2017-Mar-19 04:32N 33°44' W 118°15'0 0.0
2017-Mar-19 03:32N 33°44' W 118°15'0 0.0
2017-Mar-19 02:29N 33°44' W 118°15'0 0.0
2017-Mar-19 01:32N 33°44' W 118°15'0 0.0
2017-Mar-19 00:32N 33°44' W 118°15'0 0.0
2017-Mar-18 23:32N 33°44' W 118°15'0 0.0
2017-Mar-18 22:32N 33°44' W 118°15'0 0.0
2017-Mar-18 21:32N 33°44' W 118°15'0 0.0
2017-Mar-18 20:32N 33°44' W 118°15'0 0.0
2017-Mar-18 19:29N 33°44' W 118°15'0 0.0
2017-Mar-18 18:29N 33°44' W 118°15'0 0.0
2017-Mar-18 17:32N 33°44' W 118°15'0 0.0
2017-Mar-18 15:26N 33°44' W 118°15'0 0.0
2017-Mar-18 14:32N 33°44' W 118°15'0 0.0
2017-Mar-18 13:32N 33°44' W 118°15'0 0.0
2017-Mar-18 12:32N 33°44' W 118°15'0 0.0
2017-Mar-18 11:32N 33°44' W 118°15'0 0.0
2017-Mar-18 10:29N 33°44' W 118°15'0 0.0
2017-Mar-18 09:26N 33°44' W 118°15'0 0.0
2017-Mar-18 08:32N 33°44' W 118°15'0 0.0
2017-Mar-18 07:32N 33°44' W 118°15'0 0.0
2017-Mar-18 06:32N 33°44' W 118°15'0 0.0
2017-Mar-18 05:32N 33°44' W 118°15'0 0.0
2017-Mar-18 04:26N 33°44' W 118°15'0 0.0
2017-Mar-18 03:32N 33°44' W 118°15'0 0.0
2017-Mar-18 02:23N 33°44' W 118°15'0 0.0
2017-Mar-18 01:32N 33°44' W 118°15'0 0.0
2017-Mar-18 00:32N 33°44' W 118°15'0 0.0
2017-Mar-17 23:32N 33°44' W 118°15'0 0.0
2017-Mar-17 22:32N 33°44' W 118°15'0 0.0
2017-Mar-17 21:32N 33°44' W 118°15'0 0.0
2017-Mar-17 20:32N 33°44' W 118°15'0 0.0
2017-Mar-17 19:29N 33°44' W 118°15'0 0.0
2017-Mar-17 18:32N 33°44' W 118°15'0 0.0
2017-Mar-17 17:32N 33°44' W 118°15'0 0.0
2017-Mar-17 16:32N 33°44' W 118°15'0 0.0
2017-Mar-17 15:32N 33°44' W 118°15'0 0.0
2017-Mar-17 14:32N 33°44' W 118°15'0 0.0
2017-Mar-17 13:32N 33°44' W 118°15'0 0.0
2017-Mar-17 12:32N 33°44' W 118°15'0 0.0
2017-Mar-17 11:26N 33°44' W 118°15'0 0.0
2017-Mar-17 10:32N 33°44' W 118°15'0 0.0
2017-Mar-17 09:32N 33°44' W 118°15'0 0.0
2017-Mar-17 08:32N 33°44' W 118°15'0 0.0
2017-Mar-17 07:32N 33°44' W 118°15'0 0.0
2017-Mar-17 06:32N 33°44' W 118°15'0 0.0
2017-Mar-17 05:32N 33°44' W 118°15'0 0.0
2017-Mar-17 04:32N 33°44' W 118°15'0 0.0
2017-Mar-17 03:26N 33°44' W 118°15'0 0.0
2017-Mar-17 02:32N 33°44' W 118°15'0 0.0
2017-Mar-17 01:32N 33°44' W 118°15'0 0.0
2017-Mar-17 00:32N 33°44' W 118°15'0 0.0
2017-Mar-16 23:32N 33°44' W 118°15'0 0.0
2017-Mar-16 22:29N 33°44' W 118°15'0 0.0
2017-Mar-16 21:29N 33°44' W 118°15'0 0.0
2017-Mar-16 20:29N 33°44' W 118°15'0 0.0
2017-Mar-16 19:32N 33°44' W 118°15'0 0.0
2017-Mar-16 18:32N 33°44' W 118°15'0 0.0
2017-Mar-16 17:29N 33°44' W 118°15'0 0.0
2017-Mar-16 16:32N 33°44' W 118°15'0 0.0
2017-Mar-16 15:32N 33°44' W 118°15'0 0.0
2017-Mar-16 14:32N 33°44' W 118°15'0 0.0
2017-Mar-16 13:32N 33°44' W 118°15'0 0.0
2017-Mar-16 12:33N 33°44' W 118°15'4 4.3
2017-Mar-16 11:33N 33°40' W 118°13'7 7.2
2017-Mar-16 10:33N 33°37' W 118°21'1110.8
2017-Mar-16 09:33N 33°42' W 118°33'1110.7
2017-Mar-16 08:34N 33°47' W 118°44'1111.2
2017-Mar-16 07:33N 33°52' W 118°56'2120.9
2017-Mar-16 06:33N 34°03' W 119°17'2221.8
2017-Mar-16 05:33N 34°08' W 119°43'17521.8
2017-Mar-15 21:31N 34°44' W 123°11'2221.8
2017-Mar-15 20:31N 34°47' W 123°38'26522.1
2017-Mar-15 08:33N 35°55' W 128°51'2521.9
2017-Mar-15 07:26N 36°02' W 129°21'  
Track history (hours):
 
Tides and Currents Weather Stations Pressure Air Temp Water Temp Dewpoint Dewpoint Depression Visibility Wind Speed Wind Dir Waves Ship Positions

Marchen Maersk

Last reported at 2017-Mar-23 08:05 UTC. Time now 2017-Mar-29 22:59 UTC.
Position N 38°11' W 124°12'.

Length 367 m; draft 13.5 m.

Type: Ship (hazmat cat A). MMSI: 220594000.

Date/timePositionNaut miles runAvg speedWind from/ knotsBaromVisibWave heightAir tempDewpointWater temp
2017-Mar-23 08:05N 38°11' W 124°12'917.1
2017-Mar-23 07:34N 38°11' W 124°00'1717.0
2017-Mar-23 06:34N 38°11' W 123°39'1615.8
2017-Mar-23 05:34N 38°08' W 123°19'1616.1
2017-Mar-23 04:34N 37°57' W 123°04'1616.4
2017-Mar-23 03:34N 37°48' W 122°47'10 9.9
2017-Mar-23 02:34N 37°47' W 122°34'1110.7
2017-Mar-23 01:34N 37°48' W 122°21'2 1.8
2017-Mar-23 00:31N 37°48' W 122°18'0 0.0
2017-Mar-22 23:33N 37°48' W 122°18'0 0.0
2017-Mar-22 22:31N 37°48' W 122°18'0 0.0
2017-Mar-22 21:31N 37°48' W 122°18'0 0.0
2017-Mar-22 20:31N 37°48' W 122°18'0 0.0
2017-Mar-22 19:31N 37°48' W 122°18'0 0.0
2017-Mar-22 18:31N 37°48' W 122°18'0 0.0
2017-Mar-22 17:32N 37°48' W 122°18'0 0.0
2017-Mar-22 16:31N 37°48' W 122°18'0 0.0
2017-Mar-22 15:31N 37°48' W 122°18'0 0.0
2017-Mar-22 14:31N 37°48' W 122°18'0 0.0
2017-Mar-22 13:31N 37°48' W 122°18'0 0.0
2017-Mar-22 12:31N 37°48' W 122°18'0 0.0
2017-Mar-22 11:31N 37°48' W 122°18'0 0.0
2017-Mar-22 10:31N 37°48' W 122°18'0 0.0
2017-Mar-22 09:31N 37°48' W 122°18'0 0.0
2017-Mar-22 08:31N 37°48' W 122°18'0 0.0
2017-Mar-22 07:31N 37°48' W 122°18'0 0.0
2017-Mar-22 06:31N 37°48' W 122°18'0 0.0
2017-Mar-22 05:31N 37°48' W 122°18'0 0.0
2017-Mar-22 04:31N 37°48' W 122°18'0 0.0
2017-Mar-22 03:32N 37°48' W 122°18'0 0.0
2017-Mar-22 02:31N 37°48' W 122°18'0 0.0
2017-Mar-22 01:31N 37°48' W 122°18'0 0.0
2017-Mar-22 00:31N 37°48' W 122°18'0 0.0
2017-Mar-21 23:31N 37°48' W 122°18'0 0.0
2017-Mar-21 22:31N 37°48' W 122°18'0 0.0
2017-Mar-21 21:31N 37°48' W 122°18'0 0.0
2017-Mar-21 20:31N 37°48' W 122°18'0 0.0
2017-Mar-21 19:31N 37°48' W 122°18'0 0.0
2017-Mar-21 18:31N 37°48' W 122°18'0 0.0
2017-Mar-21 17:31N 37°48' W 122°18'0 0.0
2017-Mar-21 16:31N 37°48' W 122°18'0 0.4
2017-Mar-21 15:33N 37°48' W 122°18'2 1.6
2017-Mar-21 14:33N 37°48' W 122°20'9 8.5
2017-Mar-21 13:33N 37°48' W 122°31'9 9.2
2017-Mar-21 12:33N 37°43' W 122°40'7 7.4
2017-Mar-21 11:33N 37°35' W 122°40'7 7.3
2017-Mar-21 10:33N 37°28' W 122°40'8 7.7
2017-Mar-21 09:34N 37°20' W 122°40'8 7.6
2017-Mar-21 08:33N 37°13' W 122°40'8 7.8
2017-Mar-21 07:33N 37°05' W 122°37'1110.9
2017-Mar-21 06:33N 36°55' W 122°33'1110.9
2017-Mar-21 05:34N 36°45' W 122°28'1110.9
2017-Mar-21 04:34N 36°35' W 122°23'1111.0
2017-Mar-21 03:33N 36°24' W 122°18'1110.9
2017-Mar-21 02:34N 36°15' W 122°12'1111.1
2017-Mar-21 01:34N 36°05' W 122°05'1111.1
2017-Mar-21 00:34N 35°55' W 121°58'1010.5
2017-Mar-20 23:34N 35°46' W 121°52'1110.5
2017-Mar-20 22:33N 35°37' W 121°45'1010.2
2017-Mar-20 21:33N 35°28' W 121°39'1010.4
2017-Mar-20 20:33N 35°20' W 121°32'1010.2
2017-Mar-20 19:34N 35°11' W 121°25'1010.4
2017-Mar-20 18:33N 35°02' W 121°19'1010.3
2017-Mar-20 17:34N 34°53' W 121°12'1010.3
2017-Mar-20 16:34N 34°44' W 121°06'1010.3
2017-Mar-20 15:33N 34°36' W 120°59'1211.7
2017-Mar-20 14:34N 34°26' W 120°51'1412.9
2017-Mar-20 13:30N 34°23' W 120°35'1313.3
2017-Mar-20 12:33N 34°19' W 120°20'1313.1
2017-Mar-20 11:33N 34°16' W 120°05'1313.2
2017-Mar-20 10:33N 34°12' W 119°49'1313.0
2017-Mar-20 09:33N 34°09' W 119°34'1312.9
2017-Mar-20 08:34N 34°05' W 119°19'1313.0
2017-Mar-20 07:33N 33°60' W 119°05'1312.6
2017-Mar-20 06:33N 33°53' W 118°52'1313.1
2017-Mar-20 05:34N 33°47' W 118°38'1313.0
2017-Mar-20 04:33N 33°41' W 118°25'9 9.1
2017-Mar-20 03:33N 33°40' W 118°14'4 3.8
2017-Mar-20 02:32N 33°44' W 118°15'0 0.0
2017-Mar-20 01:32N 33°44' W 118°15'0 0.0
2017-Mar-20 00:32N 33°44' W 118°15'0 0.0
2017-Mar-19 23:32N 33°44' W 118°15'0 0.0
2017-Mar-19 22:32N 33°44' W 118°15'0 0.0
2017-Mar-19 21:32N 33°44' W 118°15'0 0.0
2017-Mar-19 20:32N 33°44' W 118°15'0 0.0
2017-Mar-19 18:32N 33°44' W 118°15'0 0.0
2017-Mar-19 17:23N 33°44' W 118°15'0 0.0
2017-Mar-19 16:32N 33°44' W 118°15'0 0.0
2017-Mar-19 15:17N 33°44' W 118°15'0 0.0
2017-Mar-19 14:32N 33°44' W 118°15'0 0.0
2017-Mar-19 13:32N 33°44' W 118°15'0 0.0
2017-Mar-19 12:32N 33°44' W 118°15'0 0.0
2017-Mar-19 11:32N 33°44' W 118°15'0 0.0
2017-Mar-19 10:32N 33°44' W 118°15'0 0.0
2017-Mar-19 09:32N 33°44' W 118°15'0 0.0
2017-Mar-19 08:32N 33°44' W 118°15'0 0.0
2017-Mar-19 07:20N 33°44' W 118°15'0 0.0
2017-Mar-19 06:32N 33°44' W 118°15'0 0.0
2017-Mar-19 05:32N 33°44' W 118°15'0 0.0
2017-Mar-19 04:32N 33°44' W 118°15'0 0.0
2017-Mar-19 03:32N 33°44' W 118°15'0 0.0
2017-Mar-19 02:29N 33°44' W 118°15'0 0.0
2017-Mar-19 01:32N 33°44' W 118°15'0 0.0
2017-Mar-19 00:32N 33°44' W 118°15'0 0.0
2017-Mar-18 23:32N 33°44' W 118°15'0 0.0
2017-Mar-18 22:32N 33°44' W 118°15'0 0.0
2017-Mar-18 21:32N 33°44' W 118°15'0 0.0
2017-Mar-18 20:32N 33°44' W 118°15'0 0.0
2017-Mar-18 19:29N 33°44' W 118°15'0 0.0
2017-Mar-18 18:29N 33°44' W 118°15'0 0.0
2017-Mar-18 17:32N 33°44' W 118°15'0 0.0
2017-Mar-18 15:26N 33°44' W 118°15'0 0.0
2017-Mar-18 14:32N 33°44' W 118°15'0 0.0
2017-Mar-18 13:32N 33°44' W 118°15'0 0.0
2017-Mar-18 12:32N 33°44' W 118°15'0 0.0
2017-Mar-18 11:32N 33°44' W 118°15'0 0.0
2017-Mar-18 10:29N 33°44' W 118°15'0 0.0
2017-Mar-18 09:26N 33°44' W 118°15'0 0.0
2017-Mar-18 08:32N 33°44' W 118°15'0 0.0
2017-Mar-18 07:32N 33°44' W 118°15'0 0.0
2017-Mar-18 06:32N 33°44' W 118°15'0 0.0
2017-Mar-18 05:32N 33°44' W 118°15'0 0.0
2017-Mar-18 04:26N 33°44' W 118°15'0 0.0
2017-Mar-18 03:32N 33°44' W 118°15'0 0.0
2017-Mar-18 02:23N 33°44' W 118°15'0 0.0
2017-Mar-18 01:32N 33°44' W 118°15'0 0.0
2017-Mar-18 00:32N 33°44' W 118°15'0 0.0
2017-Mar-17 23:32N 33°44' W 118°15'0 0.0
2017-Mar-17 22:32N 33°44' W 118°15'0 0.0
2017-Mar-17 21:32N 33°44' W 118°15'0 0.0
2017-Mar-17 20:32N 33°44' W 118°15'0 0.0
2017-Mar-17 19:29N 33°44' W 118°15'0 0.0
2017-Mar-17 18:32N 33°44' W 118°15'0 0.0
2017-Mar-17 17:32N 33°44' W 118°15'0 0.0
2017-Mar-17 16:32N 33°44' W 118°15'0 0.0
2017-Mar-17 15:32N 33°44' W 118°15'0 0.0
2017-Mar-17 14:32N 33°44' W 118°15'0 0.0
2017-Mar-17 13:32N 33°44' W 118°15'0 0.0
2017-Mar-17 12:32N 33°44' W 118°15'0 0.0
2017-Mar-17 11:26N 33°44' W 118°15'0 0.0
2017-Mar-17 10:32N 33°44' W 118°15'0 0.0
2017-Mar-17 09:32N 33°44' W 118°15'0 0.0
2017-Mar-17 08:32N 33°44' W 118°15'0 0.0
2017-Mar-17 07:32N 33°44' W 118°15'0 0.0
2017-Mar-17 06:32N 33°44' W 118°15'0 0.0
2017-Mar-17 05:32N 33°44' W 118°15'0 0.0
2017-Mar-17 04:32N 33°44' W 118°15'0 0.0
2017-Mar-17 03:26N 33°44' W 118°15'0 0.0
2017-Mar-17 02:32N 33°44' W 118°15'0 0.0
2017-Mar-17 01:32N 33°44' W 118°15'0 0.0
2017-Mar-17 00:32N 33°44' W 118°15'0 0.0
2017-Mar-16 23:32N 33°44' W 118°15'0 0.0
2017-Mar-16 22:29N 33°44' W 118°15'0 0.0
2017-Mar-16 21:29N 33°44' W 118°15'0 0.0
2017-Mar-16 20:29N 33°44' W 118°15'0 0.0
2017-Mar-16 19:32N 33°44' W 118°15'0 0.0
2017-Mar-16 18:32N 33°44' W 118°15'0 0.0
2017-Mar-16 17:29N 33°44' W 118°15'0 0.0
2017-Mar-16 16:32N 33°44' W 118°15'0 0.0
2017-Mar-16 15:32N 33°44' W 118°15'0 0.0
2017-Mar-16 14:32N 33°44' W 118°15'0 0.0
2017-Mar-16 13:32N 33°44' W 118°15'0 0.0
2017-Mar-16 12:33N 33°44' W 118°15'4 4.3
2017-Mar-16 11:33N 33°40' W 118°13'7 7.2
2017-Mar-16 10:33N 33°37' W 118°21'1110.8
2017-Mar-16 09:33N 33°42' W 118°33'1110.7
2017-Mar-16 08:34N 33°47' W 118°44'1111.2
2017-Mar-16 07:33N 33°52' W 118°56'2120.9
2017-Mar-16 06:33N 34°03' W 119°17'2221.8
2017-Mar-16 05:33N 34°08' W 119°43'17521.8
2017-Mar-15 21:31N 34°44' W 123°11'2221.8
2017-Mar-15 20:31N 34°47' W 123°38'26522.1
2017-Mar-15 08:33N 35°55' W 128°51'2521.9
2017-Mar-15 07:26N 36°02' W 129°21'  

Dump ship's entire track history